sensor_id;sensor_type;location;lat;lon;timestamp;P1;durP1;ratioP1;P2;durP2;ratioP2
2029;SDS011;1020;48.854;8.830;2023-02-15T00:01:25;31.27;;;23.47;;
2029;SDS011;1020;48.854;8.830;2023-02-15T00:03:53;31.93;;;22.87;;
2029;SDS011;1020;48.854;8.830;2023-02-15T00:06:20;29.77;;;24.60;;
2029;SDS011;1020;48.854;8.830;2023-02-15T00:08:46;29.40;;;24.33;;
2029;SDS011;1020;48.854;8.830;2023-02-15T00:11:14;28.87;;;23.20;;
2029;SDS011;1020;48.854;8.830;2023-02-15T00:14:03;28.33;;;22.50;;
2029;SDS011;1020;48.854;8.830;2023-02-15T00:16:31;31.83;;;23.10;;
2029;SDS011;1020;48.854;8.830;2023-02-15T00:19:00;32.50;;;24.30;;
2029;SDS011;1020;48.854;8.830;2023-02-15T00:21:27;30.47;;;23.40;;
2029;SDS011;1020;48.854;8.830;2023-02-15T00:23:55;27.77;;;21.63;;
2029;SDS011;1020;48.854;8.830;2023-02-15T00:26:22;30.60;;;22.67;;
2029;SDS011;1020;48.854;8.830;2023-02-15T00:28:49;26.53;;;21.83;;
2029;SDS011;1020;48.854;8.830;2023-02-15T00:31:16;26.90;;;21.90;;
2029;SDS011;1020;48.854;8.830;2023-02-15T00:33:42;23.73;;;20.27;;
2029;SDS011;1020;48.854;8.830;2023-02-15T00:36:11;25.43;;;22.70;;
2029;SDS011;1020;48.854;8.830;2023-02-15T00:38:38;24.87;;;20.03;;
2029;SDS011;1020;48.854;8.830;2023-02-15T00:41:06;24.10;;;20.50;;
2029;SDS011;1020;48.854;8.830;2023-02-15T00:43:46;23.43;;;18.97;;
2029;SDS011;1020;48.854;8.830;2023-02-15T00:46:12;24.67;;;21.33;;
2029;SDS011;1020;48.854;8.830;2023-02-15T00:48:39;28.07;;;19.13;;
2029;SDS011;1020;48.854;8.830;2023-02-15T00:51:06;23.67;;;20.07;;
2029;SDS011;1020;48.854;8.830;2023-02-15T00:53:33;28.97;;;22.67;;
2029;SDS011;1020;48.854;8.830;2023-02-15T00:55:59;30.10;;;21.13;;
2029;SDS011;1020;48.854;8.830;2023-02-15T00:58:26;23.53;;;19.00;;
2029;SDS011;1020;48.854;8.830;2023-02-15T01:00:54;24.80;;;19.23;;
2029;SDS011;1020;48.854;8.830;2023-02-15T01:03:21;22.73;;;20.33;;
2029;SDS011;1020;48.854;8.830;2023-02-15T01:05:48;20.27;;;17.83;;
2029;SDS011;1020;48.854;8.830;2023-02-15T01:08:15;25.03;;;19.37;;
2029;SDS011;1020;48.854;8.830;2023-02-15T01:10:42;22.03;;;18.57;;
2029;SDS011;1020;48.854;8.830;2023-02-15T01:13:12;25.50;;;20.80;;
2029;SDS011;1020;48.854;8.830;2023-02-15T01:15:39;26.67;;;20.70;;
2029;SDS011;1020;48.854;8.830;2023-02-15T01:18:07;26.50;;;21.47;;
2029;SDS011;1020;48.854;8.830;2023-02-15T01:20:35;28.97;;;20.67;;
2029;SDS011;1020;48.854;8.830;2023-02-15T01:23:06;23.73;;;18.70;;
2029;SDS011;1020;48.854;8.830;2023-02-15T01:25:33;21.30;;;18.10;;
2029;SDS011;1020;48.854;8.830;2023-02-15T01:28:01;22.43;;;18.00;;
2029;SDS011;1020;48.854;8.830;2023-02-15T01:30:28;20.03;;;17.37;;
2029;SDS011;1020;48.854;8.830;2023-02-15T01:32:54;20.30;;;18.20;;
2029;SDS011;1020;48.854;8.830;2023-02-15T01:35:23;20.80;;;18.60;;
2029;SDS011;1020;48.854;8.830;2023-02-15T01:37:51;18.23;;;16.37;;
2029;SDS011;1020;48.854;8.830;2023-02-15T01:40:56;18.03;;;15.33;;
2029;SDS011;1020;48.854;8.830;2023-02-15T01:43:45;18.60;;;16.60;;
2029;SDS011;1020;48.854;8.830;2023-02-15T01:46:14;20.73;;;18.50;;
2029;SDS011;1020;48.854;8.830;2023-02-15T01:48:44;18.20;;;15.57;;
2029;SDS011;1020;48.854;8.830;2023-02-15T01:51:16;19.90;;;17.03;;
2029;SDS011;1020;48.854;8.830;2023-02-15T01:53:47;20.50;;;16.33;;
2029;SDS011;1020;48.854;8.830;2023-02-15T01:56:18;19.00;;;16.17;;
2029;SDS011;1020;48.854;8.830;2023-02-15T01:58:47;22.80;;;19.17;;
2029;SDS011;1020;48.854;8.830;2023-02-15T02:01:17;22.53;;;19.23;;
2029;SDS011;1020;48.854;8.830;2023-02-15T02:03:47;23.03;;;18.80;;
2029;SDS011;1020;48.854;8.830;2023-02-15T02:06:24;20.30;;;18.20;;
2029;SDS011;1020;48.854;8.830;2023-02-15T02:08:52;22.07;;;18.13;;
2029;SDS011;1020;48.854;8.830;2023-02-15T02:11:19;17.97;;;16.03;;
2029;SDS011;1020;48.854;8.830;2023-02-15T02:13:46;21.90;;;18.47;;
2029;SDS011;1020;48.854;8.830;2023-02-15T02:16:15;24.17;;;19.30;;
2029;SDS011;1020;48.854;8.830;2023-02-15T02:18:49;19.87;;;16.00;;
2029;SDS011;1020;48.854;8.830;2023-02-15T02:21:32;17.63;;;15.73;;
2029;SDS011;1020;48.854;8.830;2023-02-15T02:24:23;22.47;;;15.90;;
2029;SDS011;1020;48.854;8.830;2023-02-15T02:36:00;17.37;;;15.50;;
2029;SDS011;1020;48.854;8.830;2023-02-15T02:38:37;15.73;;;14.10;;
2029;SDS011;1020;48.854;8.830;2023-02-15T02:41:12;21.30;;;17.97;;
2029;SDS011;1020;48.854;8.830;2023-02-15T02:43:46;30.63;;;20.03;;
2029;SDS011;1020;48.854;8.830;2023-02-15T02:46:19;17.10;;;15.30;;
2029;SDS011;1020;48.854;8.830;2023-02-15T02:48:50;18.00;;;14.73;;
2029;SDS011;1020;48.854;8.830;2023-02-15T02:51:17;16.87;;;15.07;;
2029;SDS011;1020;48.854;8.830;2023-02-15T02:53:47;18.93;;;15.53;;
2029;SDS011;1020;48.854;8.830;2023-02-15T02:56:19;24.80;;;17.80;;
2029;SDS011;1020;48.854;8.830;2023-02-15T02:58:49;78.37;;;21.30;;
2029;SDS011;1020;48.854;8.830;2023-02-15T03:01:19;40.00;;;19.53;;
2029;SDS011;1020;48.854;8.830;2023-02-15T03:03:53;33.07;;;18.73;;
2029;SDS011;1020;48.854;8.830;2023-02-15T03:06:24;24.93;;;18.00;;
2029;SDS011;1020;48.854;8.830;2023-02-15T03:08:55;83.80;;;22.90;;
2029;SDS011;1020;48.854;8.830;2023-02-15T03:11:27;50.60;;;18.13;;
2029;SDS011;1020;48.854;8.830;2023-02-15T03:13:55;17.83;;;15.87;;
2029;SDS011;1020;48.854;8.830;2023-02-15T03:16:23;18.67;;;16.60;;
2029;SDS011;1020;48.854;8.830;2023-02-15T03:18:55;34.40;;;18.10;;
2029;SDS011;1020;48.854;8.830;2023-02-15T03:21:27;43.37;;;20.63;;
2029;SDS011;1020;48.854;8.830;2023-02-15T03:23:59;20.37;;;17.57;;
2029;SDS011;1020;48.854;8.830;2023-02-15T03:26:30;43.00;;;20.70;;
2029;SDS011;1020;48.854;8.830;2023-02-15T03:29:00;71.13;;;22.67;;
2029;SDS011;1020;48.854;8.830;2023-02-15T03:31:30;23.13;;;16.90;;
2029;SDS011;1020;48.854;8.830;2023-02-15T03:34:03;94.70;;;23.07;;
2029;SDS011;1020;48.854;8.830;2023-02-15T03:36:34;44.33;;;21.37;;
2029;SDS011;1020;48.854;8.830;2023-02-15T03:39:07;21.40;;;18.10;;
2029;SDS011;1020;48.854;8.830;2023-02-15T03:41:39;24.27;;;19.77;;
2029;SDS011;1020;48.854;8.830;2023-02-15T03:44:12;23.77;;;18.37;;
2029;SDS011;1020;48.854;8.830;2023-02-15T03:46:42;24.00;;;19.80;;
2029;SDS011;1020;48.854;8.830;2023-02-15T03:49:15;24.43;;;19.20;;
2029;SDS011;1020;48.854;8.830;2023-02-15T03:51:46;23.40;;;20.87;;
2029;SDS011;1020;48.854;8.830;2023-02-15T03:54:17;34.07;;;25.30;;
2029;SDS011;1020;48.854;8.830;2023-02-15T03:57:01;31.77;;;21.83;;
2029;SDS011;1020;48.854;8.830;2023-02-15T03:59:45;27.93;;;21.77;;
2029;SDS011;1020;48.854;8.830;2023-02-15T04:02:30;25.80;;;19.43;;
2029;SDS011;1020;48.854;8.830;2023-02-15T04:05:05;23.10;;;18.33;;
2029;SDS011;1020;48.854;8.830;2023-02-15T04:07:32;25.10;;;20.53;;
2029;SDS011;1020;48.854;8.830;2023-02-15T04:09:59;23.13;;;18.53;;
2029;SDS011;1020;48.854;8.830;2023-02-15T04:12:43;24.37;;;19.50;;
2029;SDS011;1020;48.854;8.830;2023-02-15T04:15:11;24.50;;;19.00;;
2029;SDS011;1020;48.854;8.830;2023-02-15T04:17:56;22.67;;;17.97;;
2029;SDS011;1020;48.854;8.830;2023-02-15T04:20:24;22.50;;;19.23;;
2029;SDS011;1020;48.854;8.830;2023-02-15T04:23:08;19.83;;;17.80;;
2029;SDS011;1020;48.854;8.830;2023-02-15T04:25:52;20.90;;;17.50;;
2029;SDS011;1020;48.854;8.830;2023-02-15T04:28:19;25.20;;;20.33;;
2029;SDS011;1020;48.854;8.830;2023-02-15T04:30:46;22.10;;;17.60;;
2029;SDS011;1020;48.854;8.830;2023-02-15T04:33:13;19.60;;;17.50;;
2029;SDS011;1020;48.854;8.830;2023-02-15T04:35:42;21.77;;;17.70;;
2029;SDS011;1020;48.854;8.830;2023-02-15T04:38:11;17.63;;;15.73;;
2029;SDS011;1020;48.854;8.830;2023-02-15T04:40:37;20.90;;;16.73;;
2029;SDS011;1020;48.854;8.830;2023-02-15T04:43:04;21.07;;;17.80;;
2029;SDS011;1020;48.854;8.830;2023-02-15T04:45:31;20.27;;;17.27;;
2029;SDS011;1020;48.854;8.830;2023-02-15T04:47:57;23.77;;;19.07;;
2029;SDS011;1020;48.854;8.830;2023-02-15T04:50:24;20.43;;;16.40;;
2029;SDS011;1020;48.854;8.830;2023-02-15T04:52:52;20.87;;;18.40;;
2029;SDS011;1020;48.854;8.830;2023-02-15T04:55:19;21.87;;;17.37;;
2029;SDS011;1020;48.854;8.830;2023-02-15T04:57:46;20.17;;;17.07;;
2029;SDS011;1020;48.854;8.830;2023-02-15T05:00:12;23.57;;;17.30;;
2029;SDS011;1020;48.854;8.830;2023-02-15T05:02:39;21.50;;;16.70;;
2029;SDS011;1020;48.854;8.830;2023-02-15T05:05:06;20.87;;;18.53;;
2029;SDS011;1020;48.854;8.830;2023-02-15T05:07:34;22.30;;;18.90;;
2029;SDS011;1020;48.854;8.830;2023-02-15T05:10:02;22.77;;;18.07;;
2029;SDS011;1020;48.854;8.830;2023-02-15T05:12:29;23.20;;;17.87;;
2029;SDS011;1020;48.854;8.830;2023-02-15T05:14:56;23.27;;;18.40;;
2029;SDS011;1020;48.854;8.830;2023-02-15T05:17:23;19.70;;;16.37;;
2029;SDS011;1020;48.854;8.830;2023-02-15T05:19:50;20.53;;;16.80;;
2029;SDS011;1020;48.854;8.830;2023-02-15T05:22:16;20.90;;;17.33;;
2029;SDS011;1020;48.854;8.830;2023-02-15T05:24:43;20.30;;;17.40;;
2029;SDS011;1020;48.854;8.830;2023-02-15T05:27:29;19.60;;;16.80;;
2029;SDS011;1020;48.854;8.830;2023-02-15T05:30:13;21.40;;;18.00;;
2029;SDS011;1020;48.854;8.830;2023-02-15T05:32:40;20.60;;;16.37;;
2029;SDS011;1020;48.854;8.830;2023-02-15T05:35:07;17.77;;;15.70;;
2029;SDS011;1020;48.854;8.830;2023-02-15T05:37:34;19.30;;;16.40;;
2029;SDS011;1020;48.854;8.830;2023-02-15T05:40:00;19.60;;;17.10;;
2029;SDS011;1020;48.854;8.830;2023-02-15T05:42:28;21.60;;;17.63;;
2029;SDS011;1020;48.854;8.830;2023-02-15T05:44:55;19.30;;;17.17;;
2029;SDS011;1020;48.854;8.830;2023-02-15T05:47:22;22.33;;;17.70;;
2029;SDS011;1020;48.854;8.830;2023-02-15T05:49:49;22.30;;;16.87;;
2029;SDS011;1020;48.854;8.830;2023-02-15T05:52:15;19.30;;;16.30;;
2029;SDS011;1020;48.854;8.830;2023-02-15T05:54:42;19.47;;;16.10;;
2029;SDS011;1020;48.854;8.830;2023-02-15T05:57:09;18.80;;;15.67;;
2029;SDS011;1020;48.854;8.830;2023-02-15T05:59:37;21.77;;;16.40;;
2029;SDS011;1020;48.854;8.830;2023-02-15T06:02:03;19.67;;;16.80;;
2029;SDS011;1020;48.854;8.830;2023-02-15T06:04:31;18.00;;;15.87;;
2029;SDS011;1020;48.854;8.830;2023-02-15T06:06:58;24.13;;;19.60;;
2029;SDS011;1020;48.854;8.830;2023-02-15T06:09:24;22.80;;;18.57;;
2029;SDS011;1020;48.854;8.830;2023-02-15T06:11:51;19.43;;;16.17;;
2029;SDS011;1020;48.854;8.830;2023-02-15T06:14:18;18.37;;;15.43;;
2029;SDS011;1020;48.854;8.830;2023-02-15T06:16:46;22.60;;;15.30;;
2029;SDS011;1020;48.854;8.830;2023-02-15T06:19:12;17.87;;;15.70;;
2029;SDS011;1020;48.854;8.830;2023-02-15T06:21:39;17.90;;;14.00;;
2029;SDS011;1020;48.854;8.830;2023-02-15T06:24:07;19.00;;;16.40;;
2029;SDS011;1020;48.854;8.830;2023-02-15T06:26:34;18.80;;;15.90;;
2029;SDS011;1020;48.854;8.830;2023-02-15T06:29:01;18.70;;;16.20;;
2029;SDS011;1020;48.854;8.830;2023-02-15T06:31:28;19.33;;;15.47;;
2029;SDS011;1020;48.854;8.830;2023-02-15T06:33:56;22.03;;;18.40;;
2029;SDS011;1020;48.854;8.830;2023-02-15T06:36:26;29.93;;;21.63;;
2029;SDS011;1020;48.854;8.830;2023-02-15T06:38:54;28.60;;;21.83;;
2029;SDS011;1020;48.854;8.830;2023-02-15T06:41:22;22.83;;;17.50;;
2029;SDS011;1020;48.854;8.830;2023-02-15T06:43:49;20.07;;;17.77;;
2029;SDS011;1020;48.854;8.830;2023-02-15T06:46:16;25.87;;;19.70;;
2029;SDS011;1020;48.854;8.830;2023-02-15T06:48:43;21.23;;;17.30;;
2029;SDS011;1020;48.854;8.830;2023-02-15T06:51:11;18.03;;;15.80;;
2029;SDS011;1020;48.854;8.830;2023-02-15T06:53:37;18.50;;;14.67;;
2029;SDS011;1020;48.854;8.830;2023-02-15T06:56:06;18.90;;;14.63;;
2029;SDS011;1020;48.854;8.830;2023-02-15T06:58:34;21.07;;;17.27;;
2029;SDS011;1020;48.854;8.830;2023-02-15T07:01:00;21.83;;;19.50;;
2029;SDS011;1020;48.854;8.830;2023-02-15T07:03:28;27.57;;;23.07;;
2029;SDS011;1020;48.854;8.830;2023-02-15T07:05:55;25.73;;;23.00;;
2029;SDS011;1020;48.854;8.830;2023-02-15T07:08:23;23.23;;;20.63;;
2029;SDS011;1020;48.854;8.830;2023-02-15T07:10:51;20.23;;;18.10;;
2029;SDS011;1020;48.854;8.830;2023-02-15T07:13:19;23.20;;;20.30;;
2029;SDS011;1020;48.854;8.830;2023-02-15T07:15:45;25.07;;;20.97;;
2029;SDS011;1020;48.854;8.830;2023-02-15T07:18:13;25.40;;;21.83;;
2029;SDS011;1020;48.854;8.830;2023-02-15T07:20:40;25.10;;;22.40;;
2029;SDS011;1020;48.854;8.830;2023-02-15T07:23:07;23.10;;;20.60;;
2029;SDS011;1020;48.854;8.830;2023-02-15T07:25:35;22.03;;;19.67;;
2029;SDS011;1020;48.854;8.830;2023-02-15T07:28:03;21.00;;;18.93;;
2029;SDS011;1020;48.854;8.830;2023-02-15T07:30:33;20.93;;;18.63;;
2029;SDS011;1020;48.854;8.830;2023-02-15T07:33:36;22.20;;;18.27;;
2029;SDS011;1020;48.854;8.830;2023-02-15T07:36:50;19.87;;;16.33;;
2029;SDS011;1020;48.854;8.830;2023-02-15T07:39:44;19.50;;;15.83;;
2029;SDS011;1020;48.854;8.830;2023-02-15T07:42:26;18.27;;;16.27;;
2029;SDS011;1020;48.854;8.830;2023-02-15T07:44:52;22.10;;;18.27;;
2029;SDS011;1020;48.854;8.830;2023-02-15T07:47:19;19.00;;;15.93;;
2029;SDS011;1020;48.854;8.830;2023-02-15T07:49:46;15.27;;;13.73;;
2029;SDS011;1020;48.854;8.830;2023-02-15T07:52:14;18.47;;;16.57;;
2029;SDS011;1020;48.854;8.830;2023-02-15T07:54:41;22.60;;;19.27;;
2029;SDS011;1020;48.854;8.830;2023-02-15T07:57:07;21.27;;;19.07;;
2029;SDS011;1020;48.854;8.830;2023-02-15T07:59:35;20.33;;;18.30;;
2029;SDS011;1020;48.854;8.830;2023-02-15T08:02:02;18.87;;;17.07;;
2029;SDS011;1020;48.854;8.830;2023-02-15T08:04:29;18.90;;;17.10;;
2029;SDS011;1020;48.854;8.830;2023-02-15T08:06:56;19.80;;;17.37;;
2029;SDS011;1020;48.854;8.830;2023-02-15T08:09:22;19.07;;;17.27;;
2029;SDS011;1020;48.854;8.830;2023-02-15T08:11:49;19.60;;;17.90;;
2029;SDS011;1020;48.854;8.830;2023-02-15T08:14:17;15.63;;;14.33;;
2029;SDS011;1020;48.854;8.830;2023-02-15T08:17:42;16.13;;;14.53;;
2029;SDS011;1020;48.854;8.830;2023-02-15T08:20:09;14.53;;;13.33;;
2029;SDS011;1020;48.854;8.830;2023-02-15T08:22:36;15.17;;;13.87;;
2029;SDS011;1020;48.854;8.830;2023-02-15T08:25:05;13.03;;;11.93;;
2029;SDS011;1020;48.854;8.830;2023-02-15T08:27:32;14.63;;;13.37;;
2029;SDS011;1020;48.854;8.830;2023-02-15T08:29:59;15.30;;;14.00;;
2029;SDS011;1020;48.854;8.830;2023-02-15T08:32:25;14.97;;;13.77;;
2029;SDS011;1020;48.854;8.830;2023-02-15T08:34:54;16.10;;;14.60;;
2029;SDS011;1020;48.854;8.830;2023-02-15T08:37:20;15.10;;;13.80;;
2029;SDS011;1020;48.854;8.830;2023-02-15T08:39:47;15.73;;;14.40;;
2029;SDS011;1020;48.854;8.830;2023-02-15T08:42:14;14.93;;;13.53;;
2029;SDS011;1020;48.854;8.830;2023-02-15T08:44:41;14.80;;;13.60;;
2029;SDS011;1020;48.854;8.830;2023-02-15T08:47:08;14.40;;;13.30;;
2029;SDS011;1020;48.854;8.830;2023-02-15T08:49:34;14.40;;;13.20;;
2029;SDS011;1020;48.854;8.830;2023-02-15T08:52:02;15.90;;;14.60;;
2029;SDS011;1020;48.854;8.830;2023-02-15T08:54:29;15.50;;;14.30;;
2029;SDS011;1020;48.854;8.830;2023-02-15T08:56:56;16.40;;;15.00;;
2029;SDS011;1020;48.854;8.830;2023-02-15T08:59:23;17.83;;;16.23;;
2029;SDS011;1020;48.854;8.830;2023-02-15T09:01:52;16.20;;;14.80;;
2029;SDS011;1020;48.854;8.830;2023-02-15T09:04:20;16.40;;;14.90;;
2029;SDS011;1020;48.854;8.830;2023-02-15T09:06:47;16.40;;;14.90;;
2029;SDS011;1020;48.854;8.830;2023-02-15T09:09:16;16.40;;;15.00;;
2029;SDS011;1020;48.854;8.830;2023-02-15T09:11:44;16.37;;;14.87;;
2029;SDS011;1020;48.854;8.830;2023-02-15T09:14:14;16.60;;;15.10;;
2029;SDS011;1020;48.854;8.830;2023-02-15T09:16:42;16.93;;;15.33;;
2029;SDS011;1020;48.854;8.830;2023-02-15T09:19:11;15.57;;;14.20;;
2029;SDS011;1020;48.854;8.830;2023-02-15T09:21:38;16.27;;;14.87;;
2029;SDS011;1020;48.854;8.830;2023-02-15T09:24:06;16.20;;;14.70;;
2029;SDS011;1020;48.854;8.830;2023-02-15T09:26:37;16.30;;;14.90;;
2029;SDS011;1020;48.854;8.830;2023-02-15T09:29:06;15.47;;;14.17;;
2029;SDS011;1020;48.854;8.830;2023-02-15T09:31:34;15.67;;;14.40;;
2029;SDS011;1020;48.854;8.830;2023-02-15T09:34:04;16.07;;;14.57;;
2029;SDS011;1020;48.854;8.830;2023-02-15T09:36:31;16.53;;;14.93;;
2029;SDS011;1020;48.854;8.830;2023-02-15T09:39:00;16.53;;;15.03;;
2029;SDS011;1020;48.854;8.830;2023-02-15T09:41:42;16.03;;;14.57;;
2029;SDS011;1020;48.854;8.830;2023-02-15T09:44:25;15.43;;;13.83;;
2029;SDS011;1020;48.854;8.830;2023-02-15T09:47:08;15.43;;;14.03;;
2029;SDS011;1020;48.854;8.830;2023-02-15T09:49:52;13.23;;;12.07;;
2029;SDS011;1020;48.854;8.830;2023-02-15T09:52:33;12.90;;;11.70;;
2029;SDS011;1020;48.854;8.830;2023-02-15T09:55:10;14.13;;;12.93;;
2029;SDS011;1020;48.854;8.830;2023-02-15T09:57:52;13.70;;;12.50;;
2029;SDS011;1020;48.854;8.830;2023-02-15T10:00:24;14.63;;;13.33;;
2029;SDS011;1020;48.854;8.830;2023-02-15T10:03:04;15.30;;;13.90;;
2029;SDS011;1020;48.854;8.830;2023-02-15T10:05:46;16.30;;;14.80;;
2029;SDS011;1020;48.854;8.830;2023-02-15T10:11:20;13.83;;;12.53;;
2029;SDS011;1020;48.854;8.830;2023-02-15T10:17:09;13.40;;;12.13;;
2029;SDS011;1020;48.854;8.830;2023-02-15T10:19:48;10.77;;;9.87;;
2029;SDS011;1020;48.854;8.830;2023-02-15T10:22:22;12.80;;;11.77;;
2029;SDS011;1020;48.854;8.830;2023-02-15T10:27:55;12.10;;;11.00;;
2029;SDS011;1020;48.854;8.830;2023-02-15T10:30:33;12.00;;;11.00;;
2029;SDS011;1020;48.854;8.830;2023-02-15T10:33:08;13.17;;;11.87;;
2029;SDS011;1020;48.854;8.830;2023-02-15T10:35:44;9.97;;;9.17;;
2029;SDS011;1020;48.854;8.830;2023-02-15T10:38:21;11.47;;;10.47;;
2029;SDS011;1020;48.854;8.830;2023-02-15T10:40:56;10.80;;;9.87;;
2029;SDS011;1020;48.854;8.830;2023-02-15T10:49:24;10.63;;;9.80;;
2029;SDS011;1020;48.854;8.830;2023-02-15T10:52:16;10.17;;;9.23;;
2029;SDS011;1020;48.854;8.830;2023-02-15T10:54:55;7.93;;;7.33;;
2029;SDS011;1020;48.854;8.830;2023-02-15T10:57:30;10.13;;;9.33;;
2029;SDS011;1020;48.854;8.830;2023-02-15T11:00:07;12.43;;;11.30;;
2029;SDS011;1020;48.854;8.830;2023-02-15T11:02:49;12.97;;;11.90;;
2029;SDS011;1020;48.854;8.830;2023-02-15T11:05:35;11.40;;;10.40;;
2029;SDS011;1020;48.854;8.830;2023-02-15T11:08:08;11.73;;;10.73;;
2029;SDS011;1020;48.854;8.830;2023-02-15T11:10:38;11.80;;;10.80;;
2029;SDS011;1020;48.854;8.830;2023-02-15T11:13:09;12.27;;;11.17;;
2029;SDS011;1020;48.854;8.830;2023-02-15T11:15:40;11.33;;;10.43;;
2029;SDS011;1020;48.854;8.830;2023-02-15T11:18:11;11.53;;;10.53;;
2029;SDS011;1020;48.854;8.830;2023-02-15T11:20:42;12.70;;;11.70;;
2029;SDS011;1020;48.854;8.830;2023-02-15T11:23:16;11.80;;;10.67;;
2029;SDS011;1020;48.854;8.830;2023-02-15T11:25:44;12.07;;;11.27;;
2029;SDS011;1020;48.854;8.830;2023-02-15T11:28:16;11.37;;;10.47;;
2029;SDS011;1020;48.854;8.830;2023-02-15T11:30:46;12.27;;;11.30;;
2029;SDS011;1020;48.854;8.830;2023-02-15T11:33:19;11.33;;;10.33;;
2029;SDS011;1020;48.854;8.830;2023-02-15T11:35:50;13.30;;;12.20;;
2029;SDS011;1020;48.854;8.830;2023-02-15T11:38:26;13.10;;;12.00;;
2029;SDS011;1020;48.854;8.830;2023-02-15T11:40:58;13.43;;;12.33;;
2029;SDS011;1020;48.854;8.830;2023-02-15T11:43:31;12.63;;;11.53;;
2029;SDS011;1020;48.854;8.830;2023-02-15T11:46:04;13.53;;;12.43;;
2029;SDS011;1020;48.854;8.830;2023-02-15T11:48:32;13.57;;;12.37;;
2029;SDS011;1020;48.854;8.830;2023-02-15T11:50:59;13.07;;;12.07;;
2029;SDS011;1020;48.854;8.830;2023-02-15T11:53:28;13.07;;;11.77;;
2029;SDS011;1020;48.854;8.830;2023-02-15T11:55:59;13.27;;;12.27;;
2029;SDS011;1020;48.854;8.830;2023-02-15T11:58:29;11.87;;;10.87;;
2029;SDS011;1020;48.854;8.830;2023-02-15T12:01:01;11.97;;;10.93;;
2029;SDS011;1020;48.854;8.830;2023-02-15T12:03:39;12.17;;;11.10;;
2029;SDS011;1020;48.854;8.830;2023-02-15T12:06:12;11.93;;;10.63;;
2029;SDS011;1020;48.854;8.830;2023-02-15T12:08:44;12.43;;;11.37;;
2029;SDS011;1020;48.854;8.830;2023-02-15T12:11:18;11.87;;;10.97;;
2029;SDS011;1020;48.854;8.830;2023-02-15T12:13:55;12.50;;;11.50;;
2029;SDS011;1020;48.854;8.830;2023-02-15T12:16:24;12.33;;;11.33;;
2029;SDS011;1020;48.854;8.830;2023-02-15T12:18:54;12.93;;;11.93;;
2029;SDS011;1020;48.854;8.830;2023-02-15T12:21:27;12.40;;;11.50;;
2029;SDS011;1020;48.854;8.830;2023-02-15T12:23:57;11.67;;;10.67;;
2029;SDS011;1020;48.854;8.830;2023-02-15T12:26:41;10.87;;;10.10;;
2029;SDS011;1020;48.854;8.830;2023-02-15T12:29:15;11.43;;;10.63;;
2029;SDS011;1020;48.854;8.830;2023-02-15T12:31:44;11.87;;;10.97;;
2029;SDS011;1020;48.854;8.830;2023-02-15T12:34:16;11.40;;;10.50;;
2029;SDS011;1020;48.854;8.830;2023-02-15T12:36:47;12.07;;;11.07;;
2029;SDS011;1020;48.854;8.830;2023-02-15T12:39:20;11.33;;;10.43;;
2029;SDS011;1020;48.854;8.830;2023-02-15T12:42:01;11.67;;;10.77;;
2029;SDS011;1020;48.854;8.830;2023-02-15T12:44:30;11.90;;;11.00;;
2029;SDS011;1020;48.854;8.830;2023-02-15T12:46:59;10.93;;;10.13;;
2029;SDS011;1020;48.854;8.830;2023-02-15T12:49:30;11.37;;;10.47;;
2029;SDS011;1020;48.854;8.830;2023-02-15T12:51:58;10.97;;;10.07;;
2029;SDS011;1020;48.854;8.830;2023-02-15T12:54:33;10.73;;;9.87;;
2029;SDS011;1020;48.854;8.830;2023-02-15T12:57:23;11.10;;;10.20;;
2029;SDS011;1020;48.854;8.830;2023-02-15T12:59:52;9.97;;;9.27;;
2029;SDS011;1020;48.854;8.830;2023-02-15T13:02:25;10.67;;;9.80;;
2029;SDS011;1020;48.854;8.830;2023-02-15T13:04:56;10.00;;;9.20;;
2029;SDS011;1020;48.854;8.830;2023-02-15T13:07:30;10.77;;;9.97;;
2029;SDS011;1020;48.854;8.830;2023-02-15T13:09:58;10.43;;;9.63;;
2029;SDS011;1020;48.854;8.830;2023-02-15T13:12:25;10.47;;;9.67;;
2029;SDS011;1020;48.854;8.830;2023-02-15T13:14:55;11.30;;;10.40;;
2029;SDS011;1020;48.854;8.830;2023-02-15T13:17:24;10.10;;;9.40;;
2029;SDS011;1020;48.854;8.830;2023-02-15T13:19:54;9.47;;;8.77;;
2029;SDS011;1020;48.854;8.830;2023-02-15T13:22:28;9.37;;;8.63;;
2029;SDS011;1020;48.854;8.830;2023-02-15T13:25:02;8.77;;;8.00;;
2029;SDS011;1020;48.854;8.830;2023-02-15T13:27:36;8.70;;;8.00;;
2029;SDS011;1020;48.854;8.830;2023-02-15T13:30:10;8.23;;;7.63;;
2029;SDS011;1020;48.854;8.830;2023-02-15T13:32:46;9.57;;;8.67;;
2029;SDS011;1020;48.854;8.830;2023-02-15T13:35:18;9.20;;;8.50;;
2029;SDS011;1020;48.854;8.830;2023-02-15T13:40:44;9.70;;;8.90;;
2029;SDS011;1020;48.854;8.830;2023-02-15T13:43:18;9.70;;;8.87;;
2029;SDS011;1020;48.854;8.830;2023-02-15T13:46:00;9.07;;;8.13;;
2029;SDS011;1020;48.854;8.830;2023-02-15T13:48:38;8.83;;;8.13;;
2029;SDS011;1020;48.854;8.830;2023-02-15T13:51:14;9.00;;;8.30;;
2029;SDS011;1020;48.854;8.830;2023-02-15T13:53:56;8.27;;;7.67;;
2029;SDS011;1020;48.854;8.830;2023-02-15T13:56:39;9.70;;;8.80;;
2029;SDS011;1020;48.854;8.830;2023-02-15T13:59:28;9.63;;;8.83;;
2029;SDS011;1020;48.854;8.830;2023-02-15T14:02:28;8.17;;;7.57;;
2029;SDS011;1020;48.854;8.830;2023-02-15T14:05:06;9.43;;;8.73;;
2029;SDS011;1020;48.854;8.830;2023-02-15T14:07:54;9.33;;;8.63;;
2029;SDS011;1020;48.854;8.830;2023-02-15T14:10:35;9.00;;;8.30;;
2029;SDS011;1020;48.854;8.830;2023-02-15T14:13:19;8.70;;;8.10;;
2029;SDS011;1020;48.854;8.830;2023-02-15T14:16:13;8.90;;;8.30;;
2029;SDS011;1020;48.854;8.830;2023-02-15T14:18:46;9.87;;;9.00;;
2029;SDS011;1020;48.854;8.830;2023-02-15T14:21:21;8.83;;;8.00;;
2029;SDS011;1020;48.854;8.830;2023-02-15T14:23:59;8.43;;;7.73;;
2029;SDS011;1020;48.854;8.830;2023-02-15T14:26:40;10.20;;;7.77;;
2029;SDS011;1020;48.854;8.830;2023-02-15T14:29:16;9.80;;;9.00;;
2029;SDS011;1020;48.854;8.830;2023-02-15T14:31:50;9.23;;;8.43;;
2029;SDS011;1020;48.854;8.830;2023-02-15T14:34:22;9.40;;;8.60;;
2029;SDS011;1020;48.854;8.830;2023-02-15T14:36:51;8.57;;;7.87;;
2029;SDS011;1020;48.854;8.830;2023-02-15T14:39:25;9.20;;;8.40;;
2029;SDS011;1020;48.854;8.830;2023-02-15T14:42:17;8.20;;;7.60;;
2029;SDS011;1020;48.854;8.830;2023-02-15T14:44:52;8.40;;;7.70;;
2029;SDS011;1020;48.854;8.830;2023-02-15T14:47:26;9.13;;;8.40;;
2029;SDS011;1020;48.854;8.830;2023-02-15T14:50:00;8.63;;;7.93;;
2029;SDS011;1020;48.854;8.830;2023-02-15T14:53:16;9.00;;;8.20;;
2029;SDS011;1020;48.854;8.830;2023-02-15T15:01:56;7.43;;;6.83;;
2029;SDS011;1020;48.854;8.830;2023-02-15T15:04:25;8.53;;;7.73;;
2029;SDS011;1020;48.854;8.830;2023-02-15T15:07:04;7.33;;;6.73;;
2029;SDS011;1020;48.854;8.830;2023-02-15T15:09:38;8.90;;;6.40;;
2029;SDS011;1020;48.854;8.830;2023-02-15T15:12:35;7.70;;;7.10;;
2029;SDS011;1020;48.854;8.830;2023-02-15T15:15:04;7.97;;;7.03;;
2029;SDS011;1020;48.854;8.830;2023-02-15T15:29:03;14.23;;;13.00;;
2029;SDS011;1020;48.854;8.830;2023-02-15T15:31:39;14.47;;;13.17;;
2029;SDS011;1020;48.854;8.830;2023-02-15T15:37:33;13.47;;;12.20;;
2029;SDS011;1020;48.854;8.830;2023-02-15T15:46:50;11.90;;;10.70;;
2029;SDS011;1020;48.854;8.830;2023-02-15T15:49:29;11.80;;;10.60;;
2029;SDS011;1020;48.854;8.830;2023-02-15T15:51:59;11.90;;;11.00;;
2029;SDS011;1020;48.854;8.830;2023-02-15T15:54:27;11.83;;;10.70;;
2029;SDS011;1020;48.854;8.830;2023-02-15T15:56:55;12.43;;;11.37;;
2029;SDS011;1020;48.854;8.830;2023-02-15T15:59:26;14.00;;;12.80;;
2029;SDS011;1020;48.854;8.830;2023-02-15T16:01:56;11.30;;;10.30;;
2029;SDS011;1020;48.854;8.830;2023-02-15T16:04:30;12.97;;;11.77;;
2029;SDS011;1020;48.854;8.830;2023-02-15T16:07:01;15.43;;;13.97;;
2029;SDS011;1020;48.854;8.830;2023-02-15T16:09:52;13.77;;;12.50;;
2029;SDS011;1020;48.854;8.830;2023-02-15T16:12:20;13.60;;;12.40;;
2029;SDS011;1020;48.854;8.830;2023-02-15T16:14:49;18.93;;;16.93;;